CZEM/ZEM METAR and TAF weather

Enter ICAO airport designator
Station Type Date Time Source
CZEM METAR 2020/04/05 19:00 UTC NOAA

CZEM 051900Z 27011G17KT 15SM OVC032 M02/M06 A3002 RMK SC8 LAST STFD OBS/NEXT 061300 UTC SLP169


Station Type Date Time Source
CZEM Decoded METAR 2020/04/05 19:00 UTC NOAA

Eastmain River Airport, Canada (CZEM) 52-14N 078-31W
Apr 05, 2020 - 03:00 PM EDT / 2020.04.05 1900 UTC
Wind: from the W (270 degrees) at 13 MPH (11 KT) gusting to 20 MPH (17 KT):0
Visibility: 15 mile(s):0
Sky conditions: overcast
Temperature: 28 F (-2 C)
Windchill: 17 F (-8 C):1
Dew Point: 21 F (-6 C)
Relative Humidity: 74%
Pressure (altimeter): 30.02 in. Hg (1016 hPa)
ob: CZEM 051900Z 27011G17KT 15SM OVC032 M02/M06 A3002 RMK SC8 LAST STFD OBS/NEXT 061300 UTC SLP169
cycle: 19

Station Type Date Time Source
CZEM TAF UTC NOAA

Error!

Example: see airport list